createdAt,value
2017-10-16T00:01:47.105Z,26.37
2017-10-16T00:04:15.401Z,33.60
2017-10-16T00:06:43.676Z,26.43
2017-10-16T00:09:11.218Z,28.53
2017-10-16T00:11:38.723Z,26.60
2017-10-16T00:14:07.019Z,30.20
2017-10-16T00:16:35.287Z,30.50
2017-10-16T00:19:02.822Z,22.53
2017-10-16T00:21:30.316Z,28.30
2017-10-16T00:23:57.881Z,32.43
2017-10-16T00:26:25.381Z,24.40
2017-10-16T00:28:53.657Z,31.77
2017-10-16T00:31:21.198Z,29.03
2017-10-16T00:33:48.707Z,29.43
2017-10-16T00:36:16.237Z,28.50
2017-10-16T00:38:43.736Z,30.83
2017-10-16T00:41:11.270Z,28.93
2017-10-16T00:43:39.655Z,32.10
2017-10-16T00:46:07.190Z,28.90
2017-10-16T00:48:34.699Z,26.03
2017-10-16T00:51:02.253Z,29.47
2017-10-16T00:53:29.781Z,24.03
2017-10-16T00:55:57.334Z,28.00
2017-10-16T00:58:24.834Z,31.03
2017-10-16T01:00:52.354Z,23.70
2017-10-16T01:03:19.898Z,28.63
2017-10-16T01:05:47.402Z,23.20
2017-10-16T01:08:14.939Z,28.17
2017-10-16T01:10:42.452Z,24.27
2017-10-16T01:13:09.989Z,23.10
2017-10-16T01:15:38.276Z,23.93
2017-10-16T01:18:06.585Z,27.70
2017-10-16T01:20:34.865Z,41.13
2017-10-16T01:23:02.399Z,26.17
2017-10-16T01:25:29.901Z,31.43
2017-10-16T01:27:58.213Z,21.90
2017-10-16T01:30:25.750Z,26.37
2017-10-16T01:32:53.249Z,31.87
2017-10-16T01:35:21.548Z,25.63
2017-10-16T01:37:49.059Z,25.93
2017-10-16T01:40:16.610Z,23.10
2017-10-16T01:42:44.144Z,27.13
2017-10-16T01:45:11.682Z,24.50
2017-10-16T01:47:39.194Z,26.97
2017-10-16T01:50:07.495Z,24.63
2017-10-16T01:52:34.998Z,26.23
2017-10-16T01:55:02.543Z,29.43
2017-10-16T01:57:30.033Z,26.93
2017-10-16T01:59:57.626Z,26.00
2017-10-16T02:02:25.143Z,24.73
2017-10-16T02:04:52.635Z,23.73
2017-10-16T02:07:20.170Z,23.30
2017-10-16T02:09:47.669Z,27.97
2017-10-16T02:12:15.290Z,26.47
2017-10-16T02:14:42.786Z,27.67
2017-10-16T02:17:11.081Z,31.40
2017-10-16T02:19:39.342Z,27.50
2017-10-16T02:22:06.885Z,28.33
2017-10-16T02:24:34.417Z,24.83
2017-10-16T02:27:01.929Z,32.97
2017-10-16T02:29:29.461Z,29.77
2017-10-16T02:31:56.973Z,25.90
2017-10-16T02:34:24.514Z,32.70
2017-10-16T02:36:52.014Z,26.97
2017-10-16T02:39:19.562Z,27.93
2017-10-16T02:41:47.065Z,28.07
2017-10-16T02:44:14.629Z,28.40
2017-10-16T02:46:42.133Z,26.97
2017-10-16T02:49:09.629Z,32.17
2017-10-16T02:51:37.965Z,23.13
2017-10-16T02:54:05.465Z,23.53
2017-10-16T02:56:33.130Z,26.93
2017-10-16T02:59:00.638Z,25.30
2017-10-16T03:01:28.169Z,30.83
2017-10-16T03:03:55.678Z,24.47
2017-10-16T03:06:23.978Z,27.70
2017-10-16T03:08:52.254Z,27.03
2017-10-16T03:11:19.806Z,37.10
2017-10-16T03:13:47.381Z,33.03
2017-10-16T03:16:14.945Z,24.50
2017-10-16T03:18:42.470Z,27.60
2017-10-16T03:21:09.974Z,37.13
2017-10-16T03:23:37.511Z,29.70
2017-10-16T03:26:05.037Z,31.40
2017-10-16T03:28:32.574Z,24.90
2017-10-16T03:31:00.074Z,25.70
2017-10-16T03:33:28.473Z,25.77
2017-10-16T03:35:55.981Z,33.23
2017-10-16T03:38:24.289Z,28.17
2017-10-16T03:40:51.799Z,30.10
2017-10-16T03:43:20.267Z,28.20
2017-10-16T03:45:47.810Z,22.37
2017-10-16T03:48:15.327Z,26.67
2017-10-16T03:50:42.868Z,34.40
2017-10-16T03:53:10.371Z,25.20
2017-10-16T03:55:37.913Z,23.93
2017-10-16T03:58:05.414Z,29.33
2017-10-16T04:00:32.949Z,26.83
2017-10-16T04:03:00.790Z,27.80
2017-10-16T04:05:28.329Z,27.27
2017-10-16T04:07:55.824Z,32.47
2017-10-16T04:10:23.378Z,25.00
2017-10-16T04:12:50.878Z,30.47
2017-10-16T04:15:18.402Z,27.53
2017-10-16T04:17:45.941Z,23.13
2017-10-16T04:20:14.205Z,23.63
2017-10-16T04:22:41.745Z,24.50
2017-10-16T04:25:09.246Z,26.27
2017-10-16T04:27:36.790Z,23.57
2017-10-16T04:30:04.301Z,29.77
2017-10-16T04:32:31.846Z,26.23
2017-10-16T04:34:59.348Z,27.93
2017-10-16T04:37:26.897Z,31.00
2017-10-16T04:39:54.424Z,25.57
2017-10-16T04:42:21.931Z,22.97
2017-10-16T04:44:49.467Z,33.60
2017-10-16T04:47:16.982Z,24.70
2017-10-16T04:49:44.539Z,21.87
2017-10-16T04:52:12.034Z,22.73
2017-10-16T04:54:39.579Z,23.10
2017-10-16T04:57:07.118Z,30.40
2017-10-16T04:59:34.662Z,26.93
2017-10-16T05:02:03.300Z,26.93
2017-10-16T05:04:30.837Z,31.47
2017-10-16T05:06:59.146Z,27.27
2017-10-16T05:09:27.450Z,33.20
2017-10-16T05:11:54.949Z,30.07
2017-10-16T05:14:22.519Z,28.50
2017-10-16T05:16:50.013Z,32.83
2017-10-16T05:19:17.509Z,32.83
2017-10-16T05:21:45.095Z,25.90
2017-10-16T05:24:12.626Z,27.43
2017-10-16T05:26:40.167Z,32.43
2017-10-16T05:29:07.683Z,28.43
2017-10-16T05:31:35.218Z,32.23
2017-10-16T05:34:02.718Z,33.53
2017-10-16T05:36:30.278Z,31.10
2017-10-16T05:38:57.807Z,26.90
2017-10-16T05:41:25.346Z,30.27
2017-10-16T05:43:53.631Z,25.37
2017-10-16T05:46:21.142Z,28.63
2017-10-16T05:48:48.691Z,27.10
2017-10-16T05:51:16.954Z,26.63
2017-10-16T05:53:44.486Z,26.63
2017-10-16T05:56:11.981Z,26.80
2017-10-16T05:58:39.520Z,26.17
2017-10-16T06:01:07.014Z,31.30
2017-10-16T06:03:34.783Z,26.60
2017-10-16T06:06:02.284Z,21.90
2017-10-16T06:08:29.858Z,25.43
2017-10-16T06:10:57.362Z,31.43
2017-10-16T06:13:24.858Z,26.43
2017-10-16T06:15:52.387Z,30.27
2017-10-16T06:18:19.950Z,25.83
2017-10-16T06:20:47.490Z,25.43
2017-10-16T06:23:14.990Z,22.93
2017-10-16T06:25:42.521Z,23.37
2017-10-16T06:28:10.065Z,24.83
2017-10-16T06:30:38.361Z,27.60
2017-10-16T06:33:05.896Z,24.80
2017-10-16T06:35:33.449Z,28.03
2017-10-16T06:38:00.954Z,27.80
2017-10-16T06:40:28.458Z,22.33
2017-10-16T06:42:56.034Z,20.50
2017-10-16T06:45:23.548Z,19.73
2017-10-16T06:47:51.080Z,20.87
2017-10-16T06:50:18.604Z,23.00
2017-10-16T06:52:46.146Z,24.53
2017-10-16T06:55:13.646Z,28.87
2017-10-16T06:57:41.178Z,24.90
2017-10-16T07:00:08.677Z,19.17
2017-10-16T07:02:36.226Z,20.50
2017-10-16T07:05:03.725Z,23.60
2017-10-16T07:07:31.261Z,25.50
2017-10-16T07:09:58.793Z,20.70
2017-10-16T07:12:27.093Z,21.57
2017-10-16T07:14:55.399Z,18.90
2017-10-16T07:17:22.918Z,20.87
2017-10-16T07:19:50.473Z,20.77
2017-10-16T07:22:17.974Z,17.97
2017-10-16T07:24:45.531Z,20.33
2017-10-16T07:27:13.026Z,16.00
2017-10-16T07:29:40.526Z,18.87
2017-10-16T07:32:08.062Z,18.07
2017-10-16T07:34:35.567Z,18.60
2017-10-16T07:37:03.109Z,22.90
2017-10-16T07:39:30.605Z,14.37
2017-10-16T07:41:58.145Z,19.00
2017-10-16T07:44:25.646Z,19.93
2017-10-16T07:46:53.954Z,20.13
2017-10-16T07:49:21.463Z,18.43
2017-10-16T07:51:48.979Z,20.13
2017-10-16T07:54:17.274Z,14.77
2017-10-16T07:56:44.793Z,17.23
2017-10-16T07:59:12.317Z,16.40
2017-10-16T08:01:39.816Z,16.53
2017-10-16T08:04:07.378Z,14.60
2017-10-16T08:06:34.888Z,13.90
2017-10-16T08:09:02.437Z,19.67
2017-10-16T08:11:29.933Z,23.60
2017-10-16T08:13:57.468Z,19.60
2017-10-16T08:16:24.981Z,20.63
2017-10-16T08:18:52.525Z,20.63
2017-10-16T08:21:20.032Z,17.37
2017-10-16T08:23:47.585Z,16.53
2017-10-16T08:26:15.093Z,14.50
2017-10-16T08:28:43.358Z,19.20
2017-10-16T08:31:10.890Z,19.80
2017-10-16T08:33:38.401Z,15.70
2017-10-16T08:36:06.719Z,18.47
2017-10-16T08:38:34.218Z,14.67
2017-10-16T08:41:01.762Z,16.60
2017-10-16T08:43:29.387Z,20.93
2017-10-16T08:45:56.929Z,15.50
2017-10-16T08:48:24.434Z,11.70
2017-10-16T08:50:51.973Z,17.73
2017-10-16T08:53:19.506Z,17.77
2017-10-16T08:55:47.002Z,9.80
2017-10-16T08:58:14.554Z,15.33
2017-10-16T09:00:42.819Z,20.80
2017-10-16T09:03:10.351Z,13.50
2017-10-16T09:05:37.904Z,16.40
2017-10-16T09:08:05.552Z,13.87
2017-10-16T09:10:33.094Z,22.40
2017-10-16T09:13:00.589Z,16.40
2017-10-16T09:15:28.126Z,13.40
2017-10-16T09:17:55.622Z,13.73
2017-10-16T09:20:23.176Z,14.43
2017-10-16T09:22:50.669Z,11.30
2017-10-16T09:25:18.201Z,20.00
2017-10-16T09:27:45.701Z,14.03
2017-10-16T09:30:13.233Z,12.47
2017-10-16T09:32:40.733Z,12.60
2017-10-16T09:35:08.353Z,17.33
2017-10-16T09:37:35.849Z,15.50
2017-10-16T09:40:03.402Z,14.47
2017-10-16T09:42:31.671Z,15.90
2017-10-16T09:44:59.166Z,20.23
2017-10-16T09:47:26.709Z,15.47
2017-10-16T09:49:54.201Z,13.73
2017-10-16T09:52:21.746Z,10.50
2017-10-16T09:54:49.251Z,9.80
2017-10-16T09:57:17.554Z,13.73
2017-10-16T09:59:45.054Z,12.10
2017-10-16T10:02:12.581Z,14.33
2017-10-16T10:04:40.085Z,20.47
2017-10-16T10:07:07.618Z,14.13
2017-10-16T10:09:35.922Z,16.83
2017-10-16T10:12:03.461Z,11.20
2017-10-16T10:14:30.982Z,12.13
2017-10-16T10:16:58.526Z,11.20
2017-10-16T10:19:26.797Z,11.83
2017-10-16T10:21:54.309Z,19.80
2017-10-16T10:24:21.868Z,13.07
2017-10-16T10:26:50.130Z,13.37
2017-10-16T10:29:17.664Z,15.90
2017-10-16T10:31:45.162Z,16.03
2017-10-16T10:34:12.701Z,12.03
2017-10-16T10:36:40.206Z,16.50
2017-10-16T10:39:07.748Z,12.53
2017-10-16T10:41:35.246Z,13.67
2017-10-16T10:44:02.803Z,15.50
2017-10-16T10:46:30.329Z,11.50
2017-10-16T10:48:58.598Z,11.30
2017-10-16T10:51:26.134Z,19.40
2017-10-16T10:53:53.632Z,14.50
2017-10-16T10:56:21.166Z,14.77
2017-10-16T10:58:48.665Z,8.40
2017-10-16T11:01:16.286Z,11.53
2017-10-16T11:03:43.830Z,11.10
2017-10-16T11:06:11.364Z,11.80
2017-10-16T11:08:38.855Z,11.83
2017-10-16T11:11:07.583Z,15.53
2017-10-16T11:13:35.871Z,16.40
2017-10-16T11:16:04.182Z,11.80
2017-10-16T11:18:31.679Z,15.73
2017-10-16T11:20:59.181Z,14.80
2017-10-16T11:23:26.748Z,13.17
2017-10-16T11:25:54.270Z,16.43
2017-10-16T11:28:21.813Z,16.47
2017-10-16T11:30:49.317Z,11.37
2017-10-16T11:33:16.871Z,10.43
2017-10-16T11:35:45.231Z,18.37
2017-10-16T11:38:12.735Z,18.47
2017-10-16T11:40:40.282Z,14.90
2017-10-16T11:43:07.782Z,17.10
2017-10-16T11:45:36.081Z,13.80
2017-10-16T11:48:03.595Z,17.07
2017-10-16T11:50:31.127Z,20.67
2017-10-16T11:52:58.621Z,13.83
2017-10-16T11:55:26.274Z,15.47
2017-10-16T11:57:53.778Z,12.50
2017-10-16T12:00:21.320Z,17.07
2017-10-16T12:02:48.858Z,15.80
2017-10-16T12:05:17.125Z,14.73
2017-10-16T12:07:44.654Z,13.60
2017-10-16T12:10:12.156Z,9.83
2017-10-16T12:12:39.695Z,10.93
2017-10-16T12:15:07.189Z,9.50
2017-10-16T12:17:34.766Z,16.20
2017-10-16T12:20:02.271Z,12.33
2017-10-16T12:22:29.777Z,12.20
2017-10-16T12:24:57.466Z,13.03
2017-10-16T12:27:24.967Z,14.33
2017-10-16T12:29:52.502Z,11.23
2017-10-16T12:32:20.002Z,11.77
2017-10-16T12:34:47.534Z,7.87
2017-10-16T12:37:15.022Z,14.40
2017-10-16T12:39:42.551Z,13.33
2017-10-16T12:42:10.049Z,16.00
2017-10-16T12:44:37.577Z,13.77
2017-10-16T12:47:05.078Z,13.87
2017-10-16T12:49:33.531Z,11.90
2017-10-16T12:52:01.049Z,14.03
2017-10-16T12:54:29.323Z,9.20
2017-10-16T12:56:57.621Z,9.70
2017-10-16T12:59:25.894Z,11.30
2017-10-16T13:01:53.452Z,12.03
2017-10-16T13:04:20.975Z,18.23
2017-10-16T13:06:48.479Z,14.60
2017-10-16T13:09:16.024Z,16.07
2017-10-16T13:11:43.567Z,12.77
2017-10-16T13:14:11.093Z,13.00
2017-10-16T13:16:38.590Z,9.70
2017-10-16T13:19:06.134Z,9.53
2017-10-16T13:21:33.658Z,14.23
2017-10-16T13:24:01.923Z,7.67
2017-10-16T13:26:29.475Z,11.97
2017-10-16T13:28:56.974Z,18.73
2017-10-16T13:31:24.520Z,9.70
2017-10-16T13:33:52.013Z,16.37
2017-10-16T13:36:19.549Z,12.07
2017-10-16T13:38:47.104Z,9.33
2017-10-16T13:41:14.641Z,15.00
2017-10-16T13:43:42.894Z,9.50
2017-10-16T13:46:10.940Z,13.73
2017-10-16T13:48:38.445Z,14.00
2017-10-16T13:51:06.005Z,13.50
2017-10-16T13:53:33.495Z,10.00
2017-10-16T13:56:01.033Z,10.67
2017-10-16T13:58:28.585Z,9.73
2017-10-16T14:00:56.082Z,10.27
2017-10-16T14:03:23.614Z,12.50
2017-10-16T14:05:51.873Z,9.53
2017-10-16T14:08:19.443Z,9.73
2017-10-16T14:10:46.953Z,11.77
2017-10-16T14:13:14.498Z,10.40
2017-10-16T14:15:42.826Z,12.67
2017-10-16T14:18:10.329Z,12.30
2017-10-16T14:20:37.871Z,14.10
2017-10-16T14:23:05.373Z,13.83
2017-10-16T14:25:32.924Z,11.70
2017-10-16T14:28:00.438Z,7.73
2017-10-16T14:30:27.982Z,9.67
2017-10-16T14:32:55.489Z,12.20
2017-10-16T14:35:22.994Z,13.17
2017-10-16T14:37:51.297Z,15.97
2017-10-16T14:40:18.800Z,11.97
2017-10-16T14:42:46.332Z,12.03
2017-10-16T14:45:13.833Z,10.57
2017-10-16T14:47:41.367Z,10.90
2017-10-16T14:50:09.646Z,11.10
2017-10-16T14:52:37.955Z,18.40
2017-10-16T14:55:05.468Z,15.00
2017-10-16T14:57:33.105Z,10.77
2017-10-16T15:00:00.608Z,15.50
2017-10-16T15:02:28.117Z,21.03
2017-10-16T15:04:55.654Z,17.60
2017-10-16T15:07:23.158Z,16.00
2017-10-16T15:09:50.716Z,11.80
2017-10-16T15:12:18.219Z,16.30
2017-10-16T15:14:45.766Z,13.80
2017-10-16T15:17:13.271Z,12.73
2017-10-16T15:19:40.778Z,18.03
2017-10-16T15:22:08.315Z,14.00
2017-10-16T15:24:36.262Z,13.40
2017-10-16T15:27:03.863Z,13.40
2017-10-16T15:29:31.366Z,18.10
2017-10-16T15:31:58.905Z,11.30
2017-10-16T15:34:27.173Z,13.13
2017-10-16T15:36:54.730Z,12.70
2017-10-16T15:39:22.233Z,15.50
2017-10-16T15:41:49.765Z,14.40
2017-10-16T15:44:17.267Z,10.10
2017-10-16T15:46:44.800Z,18.63
2017-10-16T15:49:12.377Z,18.67
2017-10-16T15:51:39.881Z,13.40
2017-10-16T15:54:08.178Z,14.47
2017-10-16T15:56:36.463Z,17.23
2017-10-16T15:59:04.005Z,10.03
2017-10-16T16:01:31.499Z,13.90
2017-10-16T16:03:59.038Z,12.43
2017-10-16T16:06:26.549Z,14.50
2017-10-16T16:08:54.099Z,12.50
2017-10-16T16:11:21.598Z,11.90
2017-10-16T16:13:50.209Z,13.27
2017-10-16T16:16:17.720Z,10.77
2017-10-16T16:18:45.227Z,14.17
2017-10-16T16:21:12.780Z,14.13
2017-10-16T16:23:40.294Z,11.70
2017-10-16T16:26:07.847Z,14.90
2017-10-16T16:28:35.365Z,15.23
2017-10-16T16:31:02.905Z,16.83
2017-10-16T16:33:31.182Z,15.87
2017-10-16T16:35:59.629Z,10.83
2017-10-16T16:38:27.193Z,14.63
2017-10-16T16:40:54.753Z,13.10
2017-10-16T16:43:22.658Z,14.97
2017-10-16T16:45:50.175Z,12.00
2017-10-16T16:48:17.713Z,16.73
2017-10-16T16:50:45.243Z,15.77
2017-10-16T16:53:12.791Z,10.47
2017-10-16T16:55:40.308Z,17.87
2017-10-16T16:58:07.846Z,12.77
2017-10-16T17:00:36.121Z,10.20
2017-10-16T17:03:04.456Z,16.07
2017-10-16T17:05:32.017Z,14.37
2017-10-16T17:07:59.524Z,16.43
2017-10-16T17:10:27.060Z,13.77
2017-10-16T17:12:54.604Z,13.33
2017-10-16T17:15:22.957Z,11.30
2017-10-16T17:17:50.479Z,12.80
2017-10-16T17:20:18.250Z,15.03
2017-10-16T17:22:46.536Z,15.43
2017-10-16T17:25:14.855Z,18.83
2017-10-16T17:27:42.406Z,23.23
2017-10-16T17:30:10.790Z,27.70
2017-10-16T17:32:38.690Z,17.00
2017-10-16T17:35:06.249Z,22.87
2017-10-16T17:37:33.754Z,33.83
2017-10-16T17:40:01.268Z,24.17
2017-10-16T17:42:28.837Z,27.80
2017-10-16T17:44:56.350Z,24.70
2017-10-16T17:47:33.835Z,17.17
2017-10-16T17:50:02.131Z,19.67
2017-10-16T17:52:29.689Z,14.20
2017-10-16T17:54:57.191Z,19.20
2017-10-16T17:57:24.754Z,15.83
2017-10-16T17:59:52.251Z,23.60
2017-10-16T18:02:19.814Z,22.40
2017-10-16T18:04:47.319Z,13.63
2017-10-16T18:07:14.902Z,17.40
2017-10-16T18:09:42.610Z,13.50
2017-10-16T18:12:10.221Z,19.40
2017-10-16T18:14:37.993Z,16.90
2017-10-16T18:17:05.651Z,18.70
2017-10-16T18:19:33.738Z,16.20
2017-10-16T18:22:01.931Z,14.33
2017-10-16T18:24:29.767Z,17.10
2017-10-16T18:27:03.758Z,13.53
2017-10-16T18:29:31.503Z,15.53
2017-10-16T18:32:00.224Z,17.40
2017-10-16T18:34:27.943Z,14.17
2017-10-16T18:36:55.722Z,21.20
2017-10-16T18:39:23.446Z,18.83
2017-10-16T18:41:51.833Z,13.13
2017-10-16T18:44:19.330Z,15.53
2017-10-16T18:46:46.990Z,21.13
2017-10-16T18:49:15.316Z,18.97
2017-10-16T18:51:42.861Z,22.20
2017-10-16T18:54:10.414Z,13.80
2017-10-16T18:56:37.985Z,19.20
2017-10-16T18:59:05.490Z,29.70
2017-10-16T19:01:33.007Z,21.93
2017-10-16T19:04:01.045Z,20.47
2017-10-16T19:06:29.335Z,18.90
2017-10-16T19:08:57.021Z,18.23
2017-10-16T19:11:24.800Z,22.50
2017-10-16T19:13:52.651Z,17.77
2017-10-16T19:16:20.348Z,20.73
2017-10-16T19:18:48.042Z,18.67
2017-10-16T19:21:16.455Z,19.43
2017-10-16T19:23:44.124Z,19.77
2017-10-16T19:26:11.741Z,15.87
2017-10-16T19:28:39.365Z,16.00
2017-10-16T19:31:07.221Z,16.80
2017-10-16T19:33:34.821Z,18.57
2017-10-16T19:36:02.565Z,19.83
2017-10-16T19:38:30.398Z,15.50
2017-10-16T19:40:58.232Z,14.23
2017-10-16T19:43:25.734Z,20.33
2017-10-16T19:45:53.299Z,13.20
2017-10-16T19:48:20.811Z,20.30
2017-10-16T19:50:48.461Z,16.63
2017-10-16T19:53:16.221Z,15.30
2017-10-16T19:55:43.963Z,22.80
2017-10-16T19:58:11.661Z,17.10
2017-10-16T20:00:39.322Z,16.37
2017-10-16T20:03:07.053Z,25.53
2017-10-16T20:05:34.830Z,22.87
2017-10-16T20:08:02.610Z,21.23
2017-10-16T20:10:30.222Z,21.03
2017-10-16T20:12:57.767Z,25.97
2017-10-16T20:15:25.394Z,22.13
2017-10-16T20:17:52.948Z,27.00
2017-10-16T20:20:20.579Z,26.47
2017-10-16T20:22:48.720Z,21.00
2017-10-16T20:25:16.854Z,23.17
2017-10-16T20:27:44.354Z,34.30
2017-10-16T20:30:12.177Z,24.67
2017-10-16T20:32:39.786Z,24.93
2017-10-16T20:35:07.339Z,26.57
2017-10-16T20:37:34.834Z,24.37
2017-10-16T20:40:02.375Z,26.43
2017-10-16T20:42:29.865Z,24.33
2017-10-16T20:44:57.418Z,25.67
2017-10-16T20:47:25.728Z,39.23
2017-10-16T20:49:53.590Z,23.90
2017-10-16T20:52:21.203Z,20.67
2017-10-16T20:54:48.753Z,23.10
2017-10-16T20:57:16.511Z,37.13
2017-10-16T20:59:44.190Z,31.70
2017-10-16T21:02:11.765Z,23.20
2017-10-16T21:04:39.334Z,18.63
2017-10-16T21:07:06.897Z,22.43
2017-10-16T21:09:34.398Z,20.00
2017-10-16T21:12:01.928Z,20.87
2017-10-16T21:14:30.209Z,27.30
2017-10-16T21:16:57.784Z,23.80
2017-10-16T21:19:26.146Z,24.57
2017-10-16T21:21:53.681Z,23.60
2017-10-16T21:24:21.243Z,22.90
2017-10-16T21:26:48.887Z,26.50
2017-10-16T21:29:17.648Z,22.50
2017-10-16T21:31:45.710Z,17.43
2017-10-16T21:34:13.773Z,22.47
2017-10-16T21:36:42.232Z,26.70
2017-10-16T21:39:09.952Z,22.73
2017-10-16T21:41:37.616Z,24.17
2017-10-16T21:44:05.306Z,21.60
2017-10-16T21:46:32.873Z,23.77
2017-10-16T21:49:01.304Z,19.40
2017-10-16T21:51:28.978Z,25.53
2017-10-16T21:53:56.903Z,22.83
2017-10-16T21:56:24.457Z,24.83
2017-10-16T21:58:51.959Z,20.27
2017-10-16T22:01:19.522Z,23.50
2017-10-16T22:03:47.247Z,21.90
2017-10-16T22:06:15.228Z,20.97
2017-10-16T22:08:43.040Z,21.77
2017-10-16T22:11:10.873Z,18.10
2017-10-16T22:13:38.479Z,20.73
2017-10-16T22:16:06.777Z,22.87
2017-10-16T22:18:34.314Z,25.80
2017-10-16T22:21:01.818Z,19.37
2017-10-16T22:23:29.354Z,21.90
2017-10-16T22:25:56.887Z,23.57
2017-10-16T22:28:24.434Z,30.23
2017-10-16T22:30:52.043Z,21.57
2017-10-16T22:33:19.749Z,25.00
2017-10-16T22:35:47.377Z,20.77
2017-10-16T22:38:15.025Z,24.47
2017-10-16T22:40:43.066Z,21.80
2017-10-16T22:43:10.827Z,23.87
2017-10-16T22:45:39.008Z,19.80
2017-10-16T22:48:06.587Z,21.90
2017-10-16T22:50:35.047Z,20.57
2017-10-16T22:53:03.183Z,17.93
2017-10-16T22:55:31.139Z,17.90
2017-10-16T22:58:00.765Z,18.73
2017-10-16T23:00:28.614Z,23.10
2017-10-16T23:02:57.225Z,21.70
2017-10-16T23:05:25.295Z,21.70
2017-10-16T23:07:53.189Z,23.53
2017-10-16T23:10:21.365Z,19.73
2017-10-16T23:12:49.288Z,22.60
2017-10-16T23:15:17.243Z,20.80
2017-10-16T23:17:45.276Z,19.60
2017-10-16T23:20:13.219Z,21.20
2017-10-16T23:22:40.925Z,24.23
2017-10-16T23:25:08.506Z,27.13
2017-10-16T23:27:36.096Z,21.40
2017-10-16T23:30:03.821Z,20.70
2017-10-16T23:32:31.710Z,21.70
2017-10-16T23:34:59.599Z,28.70
2017-10-16T23:37:27.718Z,24.50
2017-10-16T23:39:56.381Z,24.93
2017-10-16T23:42:25.602Z,29.63
2017-10-16T23:44:53.267Z,19.67
2017-10-16T23:47:20.890Z,23.27
2017-10-16T23:49:48.714Z,23.00
2017-10-16T23:52:16.311Z,26.80
2017-10-16T23:54:44.012Z,21.30
2017-10-16T23:57:11.597Z,22.97
2017-10-16T23:59:39.314Z,21.90
